Overview Statistics Trail Chart Weather Telemetry Raw packets
 

This is the latest recevied weather packets stored in our database for station/object OE3MHU-12. If no packets are shown the sender has not sent any weather packets the latest 10 day(s).

<< 1 2 3 4 5 6 7 >>
Time Temp. Humidity Pressure Rain* Wind** Luminosity Snow
1788462773 20° C 65% 1019 hPa 0 mm - - -
1788460974 21.11° C 60% 1018.4 hPa 0 mm - - -
1788459174 22.22° C 55% 1018 hPa 0 mm - - -
1788457374 22.22° C 53% 1018 hPa 0 mm - - -
1788455574 22.78° C 54% 1017.7 hPa 0 mm - - -
1788453774 23.33° C 52% 1017.8 hPa 0 mm - - -
1788451974 23.89° C 49% 1017.5 hPa 0 mm - - -
1788450174 24.44° C 49% 1017.5 hPa 0 mm - - -
1788446574 25° C 45% 1017.5 hPa 0 mm - - -
1788444775 26.11° C 44% 1017.5 hPa 0 mm - - -
1788441174 26.67° C 43% 1017.5 hPa 0 mm - - -
1788439375 26.67° C 41% 1017.6 hPa 0 mm - - -
1788437575 26.67° C 43% 1017.7 hPa 0 mm - - -
1788435775 26.67° C 44% 1018 hPa 0 mm - - -
1788432175 26.11° C 41% 1018.4 hPa 0 mm - - -
1788430375 26.67° C 45% 1018.4 hPa 0 mm - - -
1788428615 26.11° C 46% 1018.9 hPa 0 mm - - -
1788428576 26.11° C 46% 1018.9 hPa 0 mm - - -
1788426775 26.11° C 45% 1019.3 hPa 0 mm - - -
1788424975 25° C 49% 1019.4 hPa 0 mm - - -
1788423175 25.56° C 49% 1019.4 hPa 0 mm - - -
1788421375 23.89° C 54% 1019.4 hPa 0 mm - - -
1788419575 22.78° C 58% 1019.4 hPa 0 mm - - -
1788417777 21.11° C 62% 1019.4 hPa 0 mm - - -
1788414176 14.44° C 79% 1019.3 hPa 0 mm - - -

* Rain latest hour (hover to see other rain measurements)
** Current wind speed in m/s (hover to see current wind gust speed)